sensor_id;sensor_type;location;lat;lon;timestamp;temperature;humidity
65239;SHT30;51827;51.186;6.926;2022-12-10T00:00:45;18.82;51.89
65239;SHT30;51827;51.186;6.926;2022-12-10T00:01:46;18.81;51.90
65239;SHT30;51827;51.186;6.926;2022-12-10T00:02:46;18.82;51.85
65239;SHT30;51827;51.186;6.926;2022-12-10T00:03:47;18.79;51.90
65239;SHT30;51827;51.186;6.926;2022-12-10T00:04:47;18.81;51.92
65239;SHT30;51827;51.186;6.926;2022-12-10T00:05:47;18.78;51.89
65239;SHT30;51827;51.186;6.926;2022-12-10T00:06:48;18.81;51.91
65239;SHT30;51827;51.186;6.926;2022-12-10T00:07:48;18.79;51.93
65239;SHT30;51827;51.186;6.926;2022-12-10T00:08:49;18.78;51.87
65239;SHT30;51827;51.186;6.926;2022-12-10T00:09:50;18.78;51.87
65239;SHT30;51827;51.186;6.926;2022-12-10T00:10:50;18.82;51.81
65239;SHT30;51827;51.186;6.926;2022-12-10T00:11:50;18.82;51.82
65239;SHT30;51827;51.186;6.926;2022-12-10T00:12:50;18.79;51.83
65239;SHT30;51827;51.186;6.926;2022-12-10T00:13:52;18.82;51.87
65239;SHT30;51827;51.186;6.926;2022-12-10T00:14:52;18.79;51.79
65239;SHT30;51827;51.186;6.926;2022-12-10T00:15:52;18.79;51.80
65239;SHT30;51827;51.186;6.926;2022-12-10T00:16:53;18.82;51.78
65239;SHT30;51827;51.186;6.926;2022-12-10T00:17:53;18.81;51.82
65239;SHT30;51827;51.186;6.926;2022-12-10T00:18:54;18.78;51.81
65239;SHT30;51827;51.186;6.926;2022-12-10T00:19:54;18.79;51.74
65239;SHT30;51827;51.186;6.926;2022-12-10T00:20:55;18.76;51.85
65239;SHT30;51827;51.186;6.926;2022-12-10T00:21:55;18.78;51.80
65239;SHT30;51827;51.186;6.926;2022-12-10T00:22:55;18.81;51.78
65239;SHT30;51827;51.186;6.926;2022-12-10T00:23:56;18.79;51.77
65239;SHT30;51827;51.186;6.926;2022-12-10T00:24:57;18.79;51.77
65239;SHT30;51827;51.186;6.926;2022-12-10T00:26:15;18.79;51.72
65239;SHT30;51827;51.186;6.926;2022-12-10T00:27:15;18.78;51.75
65239;SHT30;51827;51.186;6.926;2022-12-10T00:28:16;18.76;51.72
65239;SHT30;51827;51.186;6.926;2022-12-10T00:29:16;18.81;51.76
65239;SHT30;51827;51.186;6.926;2022-12-10T00:30:16;18.81;51.72
65239;SHT30;51827;51.186;6.926;2022-12-10T00:31:22;18.76;51.74
65239;SHT30;51827;51.186;6.926;2022-12-10T00:32:22;18.78;51.76
65239;SHT30;51827;51.186;6.926;2022-12-10T00:33:23;18.78;51.74
65239;SHT30;51827;51.186;6.926;2022-12-10T00:34:23;18.78;51.76
65239;SHT30;51827;51.186;6.926;2022-12-10T00:35:23;18.78;51.73
65239;SHT30;51827;51.186;6.926;2022-12-10T00:36:32;18.76;51.68
65239;SHT30;51827;51.186;6.926;2022-12-10T00:37:33;18.76;51.67
65239;SHT30;51827;51.186;6.926;2022-12-10T00:38:33;18.78;51.62
65239;SHT30;51827;51.186;6.926;2022-12-10T00:39:33;18.76;51.63
65239;SHT30;51827;51.186;6.926;2022-12-10T00:40:34;18.76;51.66
65239;SHT30;51827;51.186;6.926;2022-12-10T00:41:34;18.79;51.64
65239;SHT30;51827;51.186;6.926;2022-12-10T00:42:34;18.76;51.57
65239;SHT30;51827;51.186;6.926;2022-12-10T00:43:35;18.75;51.62
65239;SHT30;51827;51.186;6.926;2022-12-10T00:44:35;18.75;51.58
65239;SHT30;51827;51.186;6.926;2022-12-10T00:45:35;18.75;51.60
65239;SHT30;51827;51.186;6.926;2022-12-10T00:46:36;18.78;51.58
65239;SHT30;51827;51.186;6.926;2022-12-10T00:47:36;18.73;51.56
65239;SHT30;51827;51.186;6.926;2022-12-10T00:48:36;18.75;51.58
65239;SHT30;51827;51.186;6.926;2022-12-10T00:49:37;18.75;51.57
65239;SHT30;51827;51.186;6.926;2022-12-10T00:50:37;18.76;51.55
65239;SHT30;51827;51.186;6.926;2022-12-10T00:51:37;18.75;51.54
65239;SHT30;51827;51.186;6.926;2022-12-10T00:52:38;18.76;51.59
65239;SHT30;51827;51.186;6.926;2022-12-10T00:53:39;18.78;51.57
65239;SHT30;51827;51.186;6.926;2022-12-10T00:54:40;18.73;51.56
65239;SHT30;51827;51.186;6.926;2022-12-10T00:55:40;18.73;51.58
65239;SHT30;51827;51.186;6.926;2022-12-10T00:56:40;18.75;51.49
65239;SHT30;51827;51.186;6.926;2022-12-10T00:57:41;18.75;51.55
65239;SHT30;51827;51.186;6.926;2022-12-10T00:58:41;18.75;51.55
65239;SHT30;51827;51.186;6.926;2022-12-10T00:59:41;18.73;51.56
65239;SHT30;51827;51.186;6.926;2022-12-10T01:00:41;18.73;51.55
65239;SHT30;51827;51.186;6.926;2022-12-10T01:01:42;18.75;51.50
65239;SHT30;51827;51.186;6.926;2022-12-10T01:02:42;18.72;51.51
65239;SHT30;51827;51.186;6.926;2022-12-10T01:03:44;18.73;51.51
65239;SHT30;51827;51.186;6.926;2022-12-10T01:04:44;18.75;51.54
65239;SHT30;51827;51.186;6.926;2022-12-10T01:05:45;18.75;51.56
65239;SHT30;51827;51.186;6.926;2022-12-10T01:06:48;18.71;51.57
65239;SHT30;51827;51.186;6.926;2022-12-10T01:07:50;18.72;51.54
65239;SHT30;51827;51.186;6.926;2022-12-10T01:08:52;18.73;51.57
65239;SHT30;51827;51.186;6.926;2022-12-10T01:09:52;18.72;51.59
65239;SHT30;51827;51.186;6.926;2022-12-10T01:10:53;18.73;51.59
65239;SHT30;51827;51.186;6.926;2022-12-10T01:11:54;18.72;51.58
65239;SHT30;51827;51.186;6.926;2022-12-10T01:12:55;18.71;51.62
65239;SHT30;51827;51.186;6.926;2022-12-10T01:13:56;18.72;51.57
65239;SHT30;51827;51.186;6.926;2022-12-10T01:14:56;18.72;51.56
65239;SHT30;51827;51.186;6.926;2022-12-10T01:16:00;18.76;51.59
65239;SHT30;51827;51.186;6.926;2022-12-10T01:17:02;18.71;51.61
65239;SHT30;51827;51.186;6.926;2022-12-10T01:18:03;18.71;51.63
65239;SHT30;51827;51.186;6.926;2022-12-10T01:19:03;18.69;51.60
65239;SHT30;51827;51.186;6.926;2022-12-10T01:20:04;18.72;51.62
65239;SHT30;51827;51.186;6.926;2022-12-10T01:21:07;18.69;51.62
65239;SHT30;51827;51.186;6.926;2022-12-10T01:22:08;18.71;51.63
65239;SHT30;51827;51.186;6.926;2022-12-10T01:23:08;18.72;51.61
65239;SHT30;51827;51.186;6.926;2022-12-10T01:24:08;18.71;51.62
65239;SHT30;51827;51.186;6.926;2022-12-10T01:25:08;18.69;51.63
65239;SHT30;51827;51.186;6.926;2022-12-10T01:26:12;18.72;51.63
65239;SHT30;51827;51.186;6.926;2022-12-10T01:27:12;18.73;51.62
65239;SHT30;51827;51.186;6.926;2022-12-10T01:28:13;18.71;51.63
65239;SHT30;51827;51.186;6.926;2022-12-10T01:29:13;18.71;51.60
65239;SHT30;51827;51.186;6.926;2022-12-10T01:30:14;18.69;51.59
65239;SHT30;51827;51.186;6.926;2022-12-10T01:31:17;18.72;51.63
65239;SHT30;51827;51.186;6.926;2022-12-10T01:32:18;18.69;51.67
65239;SHT30;51827;51.186;6.926;2022-12-10T01:33:18;18.69;51.63
65239;SHT30;51827;51.186;6.926;2022-12-10T01:34:18;18.69;51.62
65239;SHT30;51827;51.186;6.926;2022-12-10T01:35:18;18.69;51.63
65239;SHT30;51827;51.186;6.926;2022-12-10T01:36:20;18.72;51.66
65239;SHT30;51827;51.186;6.926;2022-12-10T01:37:20;18.69;51.67
65239;SHT30;51827;51.186;6.926;2022-12-10T01:38:21;18.73;51.61
65239;SHT30;51827;51.186;6.926;2022-12-10T01:39:22;18.71;51.69
65239;SHT30;51827;51.186;6.926;2022-12-10T01:40:22;18.69;51.66
65239;SHT30;51827;51.186;6.926;2022-12-10T01:41:27;18.69;51.66
65239;SHT30;51827;51.186;6.926;2022-12-10T01:42:27;18.68;51.69
65239;SHT30;51827;51.186;6.926;2022-12-10T01:43:33;18.68;51.68
65239;SHT30;51827;51.186;6.926;2022-12-10T01:45:47;18.71;51.66
65239;SHT30;51827;51.186;6.926;2022-12-10T01:46:50;18.69;51.65
65239;SHT30;51827;51.186;6.926;2022-12-10T01:47:50;18.72;51.67
65239;SHT30;51827;51.186;6.926;2022-12-10T01:48:51;18.69;51.67
65239;SHT30;51827;51.186;6.926;2022-12-10T01:49:51;18.72;51.66
65239;SHT30;51827;51.186;6.926;2022-12-10T01:50:51;18.68;51.71
65239;SHT30;51827;51.186;6.926;2022-12-10T01:51:54;18.66;51.66
65239;SHT30;51827;51.186;6.926;2022-12-10T01:52:54;18.69;51.66
65239;SHT30;51827;51.186;6.926;2022-12-10T01:53:55;18.72;51.69
65239;SHT30;51827;51.186;6.926;2022-12-10T01:54:55;18.69;51.71
65239;SHT30;51827;51.186;6.926;2022-12-10T01:55:56;18.65;51.69
65239;SHT30;51827;51.186;6.926;2022-12-10T01:57:01;18.68;51.73
65239;SHT30;51827;51.186;6.926;2022-12-10T01:58:01;18.66;51.67
65239;SHT30;51827;51.186;6.926;2022-12-10T01:59:02;18.69;51.68
65239;SHT30;51827;51.186;6.926;2022-12-10T02:00:05;18.68;51.73
65239;SHT30;51827;51.186;6.926;2022-12-10T02:02:42;18.68;51.70
65239;SHT30;51827;51.186;6.926;2022-12-10T02:06:17;18.68;51.79
65239;SHT30;51827;51.186;6.926;2022-12-10T02:07:23;18.66;51.74
65239;SHT30;51827;51.186;6.926;2022-12-10T02:08:30;18.68;51.72
65239;SHT30;51827;51.186;6.926;2022-12-10T02:09:38;18.68;51.74
65239;SHT30;51827;51.186;6.926;2022-12-10T02:10:55;18.68;51.74
65239;SHT30;51827;51.186;6.926;2022-12-10T02:14:54;18.66;51.74
65239;SHT30;51827;51.186;6.926;2022-12-10T02:16:13;18.66;51.76
65239;SHT30;51827;51.186;6.926;2022-12-10T02:17:39;18.62;51.82
65239;SHT30;51827;51.186;6.926;2022-12-10T02:18:55;18.66;51.85
65239;SHT30;51827;51.186;6.926;2022-12-10T02:21:10;18.66;51.76
65239;SHT30;51827;51.186;6.926;2022-12-10T02:22:17;18.65;51.75
65239;SHT30;51827;51.186;6.926;2022-12-10T02:23:22;18.65;51.77
65239;SHT30;51827;51.186;6.926;2022-12-10T02:24:29;18.65;51.82
65239;SHT30;51827;51.186;6.926;2022-12-10T02:27:16;18.66;51.74
65239;SHT30;51827;51.186;6.926;2022-12-10T02:28:44;18.65;51.74
65239;SHT30;51827;51.186;6.926;2022-12-10T02:29:48;18.66;51.78
65239;SHT30;51827;51.186;6.926;2022-12-10T02:30:50;18.64;51.76
65239;SHT30;51827;51.186;6.926;2022-12-10T02:32:04;18.64;51.79
65239;SHT30;51827;51.186;6.926;2022-12-10T02:33:06;18.64;51.81
65239;SHT30;51827;51.186;6.926;2022-12-10T02:34:08;18.65;51.78
65239;SHT30;51827;51.186;6.926;2022-12-10T02:35:14;18.62;51.87
65239;SHT30;51827;51.186;6.926;2022-12-10T02:36:16;18.65;51.86
65239;SHT30;51827;51.186;6.926;2022-12-10T02:37:31;18.64;51.84
65239;SHT30;51827;51.186;6.926;2022-12-10T02:38:34;18.65;51.86
65239;SHT30;51827;51.186;6.926;2022-12-10T02:39:42;18.62;51.81
65239;SHT30;51827;51.186;6.926;2022-12-10T02:40:47;18.64;51.84
65239;SHT30;51827;51.186;6.926;2022-12-10T02:41:52;18.62;51.82
65239;SHT30;51827;51.186;6.926;2022-12-10T02:42:53;18.64;51.82
65239;SHT30;51827;51.186;6.926;2022-12-10T02:43:54;18.64;51.87
65239;SHT30;51827;51.186;6.926;2022-12-10T02:44:57;18.65;51.83
65239;SHT30;51827;51.186;6.926;2022-12-10T02:45:57;18.64;51.83
65239;SHT30;51827;51.186;6.926;2022-12-10T02:46:59;18.65;51.83
65239;SHT30;51827;51.186;6.926;2022-12-10T02:48:03;18.65;51.85
65239;SHT30;51827;51.186;6.926;2022-12-10T02:49:06;18.64;51.85
65239;SHT30;51827;51.186;6.926;2022-12-10T02:50:07;18.64;51.82
65239;SHT30;51827;51.186;6.926;2022-12-10T02:51:10;18.62;51.82
65239;SHT30;51827;51.186;6.926;2022-12-10T02:52:13;18.64;51.82
65239;SHT30;51827;51.186;6.926;2022-12-10T02:53:13;18.64;51.81
65239;SHT30;51827;51.186;6.926;2022-12-10T02:56:55;18.65;51.83
65239;SHT30;51827;51.186;6.926;2022-12-10T03:00:24;18.65;51.89
65239;SHT30;51827;51.186;6.926;2022-12-10T03:01:50;18.61;51.87
65239;SHT30;51827;51.186;6.926;2022-12-10T03:04:01;18.62;51.91
65239;SHT30;51827;51.186;6.926;2022-12-10T03:07:37;18.61;51.88
65239;SHT30;51827;51.186;6.926;2022-12-10T03:08:45;18.62;51.93
65239;SHT30;51827;51.186;6.926;2022-12-10T03:10:01;18.62;51.93
65239;SHT30;51827;51.186;6.926;2022-12-10T03:11:09;18.64;51.90
65239;SHT30;51827;51.186;6.926;2022-12-10T03:12:17;18.64;51.93
65239;SHT30;51827;51.186;6.926;2022-12-10T03:13:26;18.61;51.95
65239;SHT30;51827;51.186;6.926;2022-12-10T03:14:29;18.61;51.93
65239;SHT30;51827;51.186;6.926;2022-12-10T03:15:33;18.61;51.93
65239;SHT30;51827;51.186;6.926;2022-12-10T03:16:39;18.64;51.93
65239;SHT30;51827;51.186;6.926;2022-12-10T03:17:42;18.61;51.91
65239;SHT30;51827;51.186;6.926;2022-12-10T03:18:44;18.62;51.93
65239;SHT30;51827;51.186;6.926;2022-12-10T03:19:48;18.62;51.95
65239;SHT30;51827;51.186;6.926;2022-12-10T03:20:51;18.59;51.91
65239;SHT30;51827;51.186;6.926;2022-12-10T03:21:53;18.59;51.97
65239;SHT30;51827;51.186;6.926;2022-12-10T03:22:54;18.61;51.97
65239;SHT30;51827;51.186;6.926;2022-12-10T03:23:55;18.59;51.95
65239;SHT30;51827;51.186;6.926;2022-12-10T03:24:57;18.59;52.00
65239;SHT30;51827;51.186;6.926;2022-12-10T03:25:58;18.61;52.01
65239;SHT30;51827;51.186;6.926;2022-12-10T03:26:59;18.64;51.95
65239;SHT30;51827;51.186;6.926;2022-12-10T03:28:00;18.61;52.00
65239;SHT30;51827;51.186;6.926;2022-12-10T03:29:06;18.62;51.96
65239;SHT30;51827;51.186;6.926;2022-12-10T03:30:08;18.62;51.95
65239;SHT30;51827;51.186;6.926;2022-12-10T03:31:09;18.59;51.97
65239;SHT30;51827;51.186;6.926;2022-12-10T03:32:11;18.61;51.98
65239;SHT30;51827;51.186;6.926;2022-12-10T03:33:13;18.61;52.03
65239;SHT30;51827;51.186;6.926;2022-12-10T03:34:14;18.59;52.03
65239;SHT30;51827;51.186;6.926;2022-12-10T03:35:15;18.61;52.03
65239;SHT30;51827;51.186;6.926;2022-12-10T03:36:18;18.59;52.00
65239;SHT30;51827;51.186;6.926;2022-12-10T03:37:19;18.56;52.03
65239;SHT30;51827;51.186;6.926;2022-12-10T03:38:20;18.58;51.99
65239;SHT30;51827;51.186;6.926;2022-12-10T03:39:21;18.59;51.99
65239;SHT30;51827;51.186;6.926;2022-12-10T03:40:23;18.58;52.02
65239;SHT30;51827;51.186;6.926;2022-12-10T03:41:24;18.58;52.03
65239;SHT30;51827;51.186;6.926;2022-12-10T03:42:24;18.59;52.05
65239;SHT30;51827;51.186;6.926;2022-12-10T03:43:24;18.59;52.05
65239;SHT30;51827;51.186;6.926;2022-12-10T03:44:33;18.56;52.07
65239;SHT30;51827;51.186;6.926;2022-12-10T03:45:33;18.58;52.03
65239;SHT30;51827;51.186;6.926;2022-12-10T03:46:34;18.61;52.02
65239;SHT30;51827;51.186;6.926;2022-12-10T03:47:34;18.59;51.98
65239;SHT30;51827;51.186;6.926;2022-12-10T03:48:34;18.61;52.03
65239;SHT30;51827;51.186;6.926;2022-12-10T03:49:35;18.61;52.02
65239;SHT30;51827;51.186;6.926;2022-12-10T03:50:35;18.59;52.03
65239;SHT30;51827;51.186;6.926;2022-12-10T03:51:35;18.59;52.03
65239;SHT30;51827;51.186;6.926;2022-12-10T03:52:35;18.62;52.03
65239;SHT30;51827;51.186;6.926;2022-12-10T03:53:36;18.59;51.96
65239;SHT30;51827;51.186;6.926;2022-12-10T03:54:36;18.62;52.04
65239;SHT30;51827;51.186;6.926;2022-12-10T03:55:36;18.59;52.06
65239;SHT30;51827;51.186;6.926;2022-12-10T03:56:37;18.56;52.04
65239;SHT30;51827;51.186;6.926;2022-12-10T03:57:37;18.61;52.05
65239;SHT30;51827;51.186;6.926;2022-12-10T03:58:38;18.58;52.06
65239;SHT30;51827;51.186;6.926;2022-12-10T03:59:38;18.61;52.02
65239;SHT30;51827;51.186;6.926;2022-12-10T04:00:38;18.59;52.08
65239;SHT30;51827;51.186;6.926;2022-12-10T04:01:38;18.58;52.03
65239;SHT30;51827;51.186;6.926;2022-12-10T04:02:39;18.59;52.07
65239;SHT30;51827;51.186;6.926;2022-12-10T04:03:40;18.59;52.10
65239;SHT30;51827;51.186;6.926;2022-12-10T04:04:42;18.58;52.06
65239;SHT30;51827;51.186;6.926;2022-12-10T04:05:42;18.58;52.10
65239;SHT30;51827;51.186;6.926;2022-12-10T04:06:43;18.59;52.05
65239;SHT30;51827;51.186;6.926;2022-12-10T04:07:43;18.58;52.09
65239;SHT30;51827;51.186;6.926;2022-12-10T04:08:44;18.56;52.14
65239;SHT30;51827;51.186;6.926;2022-12-10T04:09:44;18.61;52.14
65239;SHT30;51827;51.186;6.926;2022-12-10T04:10:44;18.58;52.12
65239;SHT30;51827;51.186;6.926;2022-12-10T04:11:45;18.62;52.11
65239;SHT30;51827;51.186;6.926;2022-12-10T04:12:45;18.58;52.14
65239;SHT30;51827;51.186;6.926;2022-12-10T04:13:45;18.59;52.12
65239;SHT30;51827;51.186;6.926;2022-12-10T04:14:45;18.56;52.17
65239;SHT30;51827;51.186;6.926;2022-12-10T04:15:46;18.56;52.17
65239;SHT30;51827;51.186;6.926;2022-12-10T04:16:46;18.59;52.16
65239;SHT30;51827;51.186;6.926;2022-12-10T04:17:46;18.59;52.19
65239;SHT30;51827;51.186;6.926;2022-12-10T04:18:46;18.58;52.14
65239;SHT30;51827;51.186;6.926;2022-12-10T04:19:47;18.55;52.18
65239;SHT30;51827;51.186;6.926;2022-12-10T04:20:47;18.58;52.18
65239;SHT30;51827;51.186;6.926;2022-12-10T04:21:48;18.58;52.16
65239;SHT30;51827;51.186;6.926;2022-12-10T04:22:48;18.61;52.18
65239;SHT30;51827;51.186;6.926;2022-12-10T04:23:48;18.61;52.14
65239;SHT30;51827;51.186;6.926;2022-12-10T04:24:49;18.58;52.16
65239;SHT30;51827;51.186;6.926;2022-12-10T04:25:49;18.58;52.21
65239;SHT30;51827;51.186;6.926;2022-12-10T04:26:50;18.56;52.18
65239;SHT30;51827;51.186;6.926;2022-12-10T04:27:50;18.58;52.15
65239;SHT30;51827;51.186;6.926;2022-12-10T04:28:50;18.58;52.20
65239;SHT30;51827;51.186;6.926;2022-12-10T04:29:51;18.59;52.22
65239;SHT30;51827;51.186;6.926;2022-12-10T04:30:52;18.58;52.19
65239;SHT30;51827;51.186;6.926;2022-12-10T04:31:52;18.59;52.19
65239;SHT30;51827;51.186;6.926;2022-12-10T04:32:52;18.58;52.18
65239;SHT30;51827;51.186;6.926;2022-12-10T04:33:52;18.59;52.21
65239;SHT30;51827;51.186;6.926;2022-12-10T04:34:53;18.59;52.22
65239;SHT30;51827;51.186;6.926;2022-12-10T04:35:54;18.59;52.19
65239;SHT30;51827;51.186;6.926;2022-12-10T04:36:55;18.59;52.17
65239;SHT30;51827;51.186;6.926;2022-12-10T04:37:56;18.58;52.25
65239;SHT30;51827;51.186;6.926;2022-12-10T04:38:56;18.56;52.22
65239;SHT30;51827;51.186;6.926;2022-12-10T04:39:57;18.58;52.20
65239;SHT30;51827;51.186;6.926;2022-12-10T04:40:57;18.58;52.25
65239;SHT30;51827;51.186;6.926;2022-12-10T04:41:59;18.58;52.28
65239;SHT30;51827;51.186;6.926;2022-12-10T04:42:59;18.58;52.27
65239;SHT30;51827;51.186;6.926;2022-12-10T04:44:00;18.54;52.28
65239;SHT30;51827;51.186;6.926;2022-12-10T04:45:00;18.56;52.33
65239;SHT30;51827;51.186;6.926;2022-12-10T04:46:00;18.56;52.30
65239;SHT30;51827;51.186;6.926;2022-12-10T04:47:00;18.59;52.29
65239;SHT30;51827;51.186;6.926;2022-12-10T04:48:01;18.59;52.25
65239;SHT30;51827;51.186;6.926;2022-12-10T04:49:02;18.58;52.27
65239;SHT30;51827;51.186;6.926;2022-12-10T04:50:03;18.58;52.25
65239;SHT30;51827;51.186;6.926;2022-12-10T04:51:03;18.58;52.28
65239;SHT30;51827;51.186;6.926;2022-12-10T04:52:05;18.59;52.27
65239;SHT30;51827;51.186;6.926;2022-12-10T04:53:06;18.58;52.30
65239;SHT30;51827;51.186;6.926;2022-12-10T04:54:06;18.56;52.30
65239;SHT30;51827;51.186;6.926;2022-12-10T04:55:07;18.58;52.32
65239;SHT30;51827;51.186;6.926;2022-12-10T04:56:07;18.56;52.36
65239;SHT30;51827;51.186;6.926;2022-12-10T04:57:08;18.58;52.32
65239;SHT30;51827;51.186;6.926;2022-12-10T04:58:08;18.58;52.27
65239;SHT30;51827;51.186;6.926;2022-12-10T04:59:09;18.59;52.28
65239;SHT30;51827;51.186;6.926;2022-12-10T05:00:09;18.61;52.32
65239;SHT30;51827;51.186;6.926;2022-12-10T05:01:11;18.58;52.28
65239;SHT30;51827;51.186;6.926;2022-12-10T05:02:11;18.58;52.34
65239;SHT30;51827;51.186;6.926;2022-12-10T05:03:11;18.58;52.34
65239;SHT30;51827;51.186;6.926;2022-12-10T05:04:13;18.58;52.39
65239;SHT30;51827;51.186;6.926;2022-12-10T05:05:14;18.58;52.32
65239;SHT30;51827;51.186;6.926;2022-12-10T05:06:15;18.56;52.34
65239;SHT30;51827;51.186;6.926;2022-12-10T05:07:16;18.58;52.33
65239;SHT30;51827;51.186;6.926;2022-12-10T05:08:16;18.55;52.37
65239;SHT30;51827;51.186;6.926;2022-12-10T05:09:17;18.56;52.37
65239;SHT30;51827;51.186;6.926;2022-12-10T05:10:17;18.58;52.35
65239;SHT30;51827;51.186;6.926;2022-12-10T05:11:20;18.56;52.33
65239;SHT30;51827;51.186;6.926;2022-12-10T05:12:21;18.59;52.38
65239;SHT30;51827;51.186;6.926;2022-12-10T05:13:21;18.58;52.39
65239;SHT30;51827;51.186;6.926;2022-12-10T05:14:21;18.56;52.38
65239;SHT30;51827;51.186;6.926;2022-12-10T05:15:22;18.59;52.42
65239;SHT30;51827;51.186;6.926;2022-12-10T05:16:23;18.58;52.42
65239;SHT30;51827;51.186;6.926;2022-12-10T05:17:24;18.58;52.41
65239;SHT30;51827;51.186;6.926;2022-12-10T05:18:24;18.55;52.42
65239;SHT30;51827;51.186;6.926;2022-12-10T05:19:24;18.59;52.42
65239;SHT30;51827;51.186;6.926;2022-12-10T05:20:24;18.56;52.40
65239;SHT30;51827;51.186;6.926;2022-12-10T05:21:27;18.59;52.42
65239;SHT30;51827;51.186;6.926;2022-12-10T05:22:27;18.59;52.36
65239;SHT30;51827;51.186;6.926;2022-12-10T05:23:27;18.58;52.41
65239;SHT30;51827;51.186;6.926;2022-12-10T05:24:28;18.58;52.36
65239;SHT30;51827;51.186;6.926;2022-12-10T05:25:28;18.59;52.37
65239;SHT30;51827;51.186;6.926;2022-12-10T05:26:28;18.59;52.36
65239;SHT30;51827;51.186;6.926;2022-12-10T05:27:33;18.56;52.41
65239;SHT30;51827;51.186;6.926;2022-12-10T05:28:46;18.58;52.52
65239;SHT30;51827;51.186;6.926;2022-12-10T05:29:46;18.56;52.47
65239;SHT30;51827;51.186;6.926;2022-12-10T05:30:46;18.56;52.47
65239;SHT30;51827;51.186;6.926;2022-12-10T05:31:47;18.55;52.45
65239;SHT30;51827;51.186;6.926;2022-12-10T05:32:47;18.56;52.49
65239;SHT30;51827;51.186;6.926;2022-12-10T05:33:48;18.56;52.45
65239;SHT30;51827;51.186;6.926;2022-12-10T05:34:48;18.58;52.43
65239;SHT30;51827;51.186;6.926;2022-12-10T05:36:06;18.61;52.52
65239;SHT30;51827;51.186;6.926;2022-12-10T05:37:07;18.58;52.45
65239;SHT30;51827;51.186;6.926;2022-12-10T05:38:07;18.58;52.48
65239;SHT30;51827;51.186;6.926;2022-12-10T05:39:07;18.59;52.45
65239;SHT30;51827;51.186;6.926;2022-12-10T05:40:08;18.59;52.45
65239;SHT30;51827;51.186;6.926;2022-12-10T05:41:14;18.58;52.48
65239;SHT30;51827;51.186;6.926;2022-12-10T05:42:15;18.56;52.51
65239;SHT30;51827;51.186;6.926;2022-12-10T05:43:15;18.59;52.52
65239;SHT30;51827;51.186;6.926;2022-12-10T05:44:15;18.59;52.47
65239;SHT30;51827;51.186;6.926;2022-12-10T05:45:16;18.56;52.52
65239;SHT30;51827;51.186;6.926;2022-12-10T05:46:22;18.59;52.55
65239;SHT30;51827;51.186;6.926;2022-12-10T05:47:22;18.58;52.52
65239;SHT30;51827;51.186;6.926;2022-12-10T05:48:23;18.58;52.52
65239;SHT30;51827;51.186;6.926;2022-12-10T05:49:23;18.58;52.52
65239;SHT30;51827;51.186;6.926;2022-12-10T05:50:23;18.59;52.54
65239;SHT30;51827;51.186;6.926;2022-12-10T05:51:26;18.58;52.50
65239;SHT30;51827;51.186;6.926;2022-12-10T05:52:26;18.58;52.54
65239;SHT30;51827;51.186;6.926;2022-12-10T05:53:26;18.56;52.55
65239;SHT30;51827;51.186;6.926;2022-12-10T05:54:26;18.56;52.56
65239;SHT30;51827;51.186;6.926;2022-12-10T05:55:27;18.58;52.57
65239;SHT30;51827;51.186;6.926;2022-12-10T05:56:27;18.58;52.52
65239;SHT30;51827;51.186;6.926;2022-12-10T05:57:27;18.55;52.61
65239;SHT30;51827;51.186;6.926;2022-12-10T05:58:28;18.56;52.61
65239;SHT30;51827;51.186;6.926;2022-12-10T05:59:29;18.58;52.52
65239;SHT30;51827;51.186;6.926;2022-12-10T06:00:29;18.59;52.61
65239;SHT30;51827;51.186;6.926;2022-12-10T06:01:32;18.58;52.57
65239;SHT30;51827;51.186;6.926;2022-12-10T06:02:33;18.59;52.57
65239;SHT30;51827;51.186;6.926;2022-12-10T06:03:33;18.58;52.56
65239;SHT30;51827;51.186;6.926;2022-12-10T06:04:33;18.58;52.62
65239;SHT30;51827;51.186;6.926;2022-12-10T06:05:38;18.61;52.61
65239;SHT30;51827;51.186;6.926;2022-12-10T06:06:39;18.58;52.60
65239;SHT30;51827;51.186;6.926;2022-12-10T06:07:39;18.59;52.56
65239;SHT30;51827;51.186;6.926;2022-12-10T06:08:40;18.61;52.59
65239;SHT30;51827;51.186;6.926;2022-12-10T06:09:40;18.58;52.56
65239;SHT30;51827;51.186;6.926;2022-12-10T06:10:40;18.59;52.66
65239;SHT30;51827;51.186;6.926;2022-12-10T06:11:41;18.59;52.60
65239;SHT30;51827;51.186;6.926;2022-12-10T06:12:41;18.61;52.59
65239;SHT30;51827;51.186;6.926;2022-12-10T06:13:41;18.61;52.60
65239;SHT30;51827;51.186;6.926;2022-12-10T06:14:41;18.58;52.63
65239;SHT30;51827;51.186;6.926;2022-12-10T06:15:42;18.58;52.66
65239;SHT30;51827;51.186;6.926;2022-12-10T06:16:42;18.59;52.67
65239;SHT30;51827;51.186;6.926;2022-12-10T06:17:42;18.59;52.63
65239;SHT30;51827;51.186;6.926;2022-12-10T06:18:43;18.59;52.62
65239;SHT30;51827;51.186;6.926;2022-12-10T06:19:43;18.61;52.66
65239;SHT30;51827;51.186;6.926;2022-12-10T06:20:43;18.58;52.62
65239;SHT30;51827;51.186;6.926;2022-12-10T06:21:43;18.59;52.67
65239;SHT30;51827;51.186;6.926;2022-12-10T06:22:44;18.59;52.67
65239;SHT30;51827;51.186;6.926;2022-12-10T06:23:44;18.61;52.66
65239;SHT30;51827;51.186;6.926;2022-12-10T06:24:45;18.62;52.65
65239;SHT30;51827;51.186;6.926;2022-12-10T06:25:45;18.61;52.66
65239;SHT30;51827;51.186;6.926;2022-12-10T06:26:45;18.61;52.65
65239;SHT30;51827;51.186;6.926;2022-12-10T06:27:45;18.59;52.65
65239;SHT30;51827;51.186;6.926;2022-12-10T06:28:47;18.62;52.67
65239;SHT30;51827;51.186;6.926;2022-12-10T06:29:47;18.59;52.63
65239;SHT30;51827;51.186;6.926;2022-12-10T06:30:47;18.59;52.67
65239;SHT30;51827;51.186;6.926;2022-12-10T06:31:48;18.59;52.70
65239;SHT30;51827;51.186;6.926;2022-12-10T06:32:48;18.59;52.67
65239;SHT30;51827;51.186;6.926;2022-12-10T06:33:48;18.59;52.71
65239;SHT30;51827;51.186;6.926;2022-12-10T06:34:49;18.61;52.64
65239;SHT30;51827;51.186;6.926;2022-12-10T06:35:49;18.62;52.67
65239;SHT30;51827;51.186;6.926;2022-12-10T06:36:49;18.64;52.67
65239;SHT30;51827;51.186;6.926;2022-12-10T06:37:50;18.61;52.68
65239;SHT30;51827;51.186;6.926;2022-12-10T06:38:50;18.64;52.70
65239;SHT30;51827;51.186;6.926;2022-12-10T06:39:51;18.59;52.72
65239;SHT30;51827;51.186;6.926;2022-12-10T06:40:51;18.62;52.75
65239;SHT30;51827;51.186;6.926;2022-12-10T06:41:51;18.61;52.72
65239;SHT30;51827;51.186;6.926;2022-12-10T06:42:52;18.61;52.74
65239;SHT30;51827;51.186;6.926;2022-12-10T06:43:52;18.61;52.66
65239;SHT30;51827;51.186;6.926;2022-12-10T06:44:52;18.64;52.70
65239;SHT30;51827;51.186;6.926;2022-12-10T06:45:52;18.65;52.70
65239;SHT30;51827;51.186;6.926;2022-12-10T06:46:53;18.64;52.68
65239;SHT30;51827;51.186;6.926;2022-12-10T06:47:53;18.64;52.65
65239;SHT30;51827;51.186;6.926;2022-12-10T06:48:53;18.62;52.77
65239;SHT30;51827;51.186;6.926;2022-12-10T06:49:54;18.64;52.74